CLX2605 RJGG-UTAA
Flight info
| Callsign | CLX2605 |
|---|---|
| Flight time | N/A |
| Altitude | 26000 |
| Route | YME Y18 MIHOU Y38 SAPRA G585 SEL G597 AGAVO/K0891S0840 A591 IKEKA W4 HCH W200 DOVIV W55 PAMRU W34 VYK B215 LUVES/K0920S0980 B215 NIRUV W199 ALGOT DCT BILDA W112 TUSLI W187 SADAN W186 KAMUD/K0885F300 L141 ZEZAM/K0889F320 L141 TISIB L143 POGON/N0478F320 B114 BUROT BUR29A |
| Aircraft | B744/H-SDE3FGHIM1M2RWXY/LB1 |
Departure
| Time | 2026-04-30 19:32 |
|---|---|
| Airport | Chubu Centrair International Airport (RJGG) |
Arrival
| Time | N/A |
|---|---|
| Airport | Ashgabat International Airport (UTAA) |
| Time | Latitude | Longitude | Altitude | Speed | Heading |
|---|---|---|---|---|---|
| 2026-04-30 19:07 | 34.87438 | 136.80721 | 11 ft | 0 kts | 79° |
| 2026-04-30 19:23 | 34.87431 | 136.80681 | 11 ft | 1 kts | 79° |
| 2026-04-30 19:24 | 34.87423 | 136.80653 | 11 ft | 2 kts | 54° |
| 2026-04-30 19:24 | 34.87413 | 136.80640 | 11 ft | 2 kts | 39° |
| 2026-04-30 19:24 | 34.87386 | 136.80626 | 11 ft | 2 kts | 7° |
| 2026-04-30 19:25 | 34.87401 | 136.80617 | 12 ft | 5 kts | 334° |
| 2026-04-30 19:26 | 34.87436 | 136.80545 | 12 ft | 5 kts | 270° |
| 2026-04-30 19:26 | 34.87418 | 136.80428 | 11 ft | 7 kts | 259° |
| 2026-04-30 19:26 | 34.87408 | 136.80364 | 11 ft | 6 kts | 259° |
| 2026-04-30 19:27 | 34.87401 | 136.80325 | 11 ft | 0 kts | 259° |
| 2026-04-30 19:30 | 34.87396 | 136.80289 | 11 ft | 6 kts | 259° |
| 2026-04-30 19:30 | 34.87344 | 136.80179 | 11 ft | 0 kts | 169° |
| 2026-04-30 19:31 | 34.87288 | 136.80193 | 11 ft | 31 kts | 167° |
| 2026-04-30 19:31 | 34.86841 | 136.80301 | 12 ft | 98 kts | 166° |
| 2026-04-30 19:31 | 34.84766 | 136.80827 | 196 ft | 189 kts | 163° |
| 2026-04-30 19:32 | 34.83403 | 136.80991 | 735 ft | 207 kts | 182° |
| 2026-04-30 19:32 | 34.82019 | 136.80374 | 1462 ft | 223 kts | 207° |
| 2026-04-30 19:32 | 34.80924 | 136.79024 | 2281 ft | 234 kts | 231° |
| 2026-04-30 19:32 | 34.80344 | 136.77147 | 3075 ft | 245 kts | 255° |
| 2026-04-30 19:33 | 34.80413 | 136.75064 | 3802 ft | 257 kts | 279° |
| 2026-04-30 19:33 | 34.81107 | 136.73039 | 4458 ft | 269 kts | 295° |
| 2026-04-30 19:33 | 34.81995 | 136.71037 | 5206 ft | 270 kts | 291° |
| 2026-04-30 19:33 | 34.82799 | 136.68967 | 5992 ft | 271 kts | 290° |
| 2026-04-30 19:34 | 34.83620 | 136.66887 | 6566 ft | 281 kts | 291° |
| 2026-04-30 19:34 | 34.84491 | 136.64737 | 7042 ft | 292 kts | 291° |
| 2026-04-30 19:34 | 34.86343 | 136.60283 | 8230 ft | 299 kts | 291° |
| 2026-04-30 19:35 | 34.87291 | 136.58020 | 8836 ft | 299 kts | 291° |
| 2026-04-30 19:35 | 34.88234 | 136.55803 | 9459 ft | 298 kts | 291° |
| 2026-04-30 19:35 | 34.89190 | 136.53587 | 10083 ft | 297 kts | 291° |
| 2026-04-30 19:35 | 34.90147 | 136.51353 | 10687 ft | 297 kts | 291° |
| 2026-04-30 19:36 | 34.91104 | 136.49103 | 11181 ft | 301 kts | 291° |
| 2026-04-30 19:36 | 34.92072 | 136.46832 | 11576 ft | 309 kts | 291° |
| 2026-04-30 19:36 | 34.94107 | 136.42075 | 12302 ft | 323 kts | 292° |
| 2026-04-30 19:37 | 34.95141 | 136.39653 | 12769 ft | 324 kts | 292° |
| 2026-04-30 19:37 | 34.96191 | 136.37222 | 13276 ft | 325 kts | 292° |
| 2026-04-30 19:37 | 34.97219 | 136.34804 | 13773 ft | 325 kts | 292° |
| 2026-04-30 19:37 | 34.98278 | 136.32338 | 14282 ft | 326 kts | 291° |
| 2026-04-30 19:38 | 34.99337 | 136.29894 | 14783 ft | 327 kts | 291° |
| 2026-04-30 19:38 | 35.00385 | 136.27472 | 15251 ft | 327 kts | 290° |
| 2026-04-30 19:38 | 35.01436 | 136.25012 | 15713 ft | 329 kts | 290° |
| 2026-04-30 19:38 | 35.02493 | 136.22530 | 16168 ft | 329 kts | 290° |
| 2026-04-30 19:39 | 35.03551 | 136.20059 | 16635 ft | 331 kts | 290° |
| 2026-04-30 19:39 | 35.04616 | 136.17580 | 17118 ft | 331 kts | 289° |
| 2026-04-30 19:39 | 35.05685 | 136.15100 | 17585 ft | 333 kts | 290° |
| 2026-04-30 19:39 | 35.06750 | 136.12607 | 17991 ft | 335 kts | 289° |
| 2026-04-30 19:40 | 35.07832 | 136.10053 | 18387 ft | 339 kts | 289° |
| 2026-04-30 19:40 | 35.08923 | 136.07498 | 18794 ft | 342 kts | 289° |
| 2026-04-30 19:40 | 35.10020 | 136.04933 | 19211 ft | 344 kts | 289° |
| 2026-04-30 19:40 | 35.11113 | 136.02347 | 19573 ft | 347 kts | 288° |
| 2026-04-30 19:41 | 35.12242 | 135.99693 | 19929 ft | 352 kts | 288° |
| 2026-04-30 19:41 | 35.13362 | 135.97034 | 20329 ft | 358 kts | 288° |
| 2026-04-30 19:41 | 35.14499 | 135.94345 | 20831 ft | 362 kts | 288° |
| 2026-04-30 19:41 | 35.15662 | 135.91603 | 21374 ft | 363 kts | 288° |
| 2026-04-30 19:42 | 35.16819 | 135.88875 | 21813 ft | 366 kts | 288° |
| 2026-04-30 19:42 | 35.17993 | 135.86098 | 22269 ft | 368 kts | 287° |
| 2026-04-30 19:42 | 35.19172 | 135.83315 | 22795 ft | 369 kts | 287° |
| 2026-04-30 19:42 | 35.20338 | 135.80557 | 23257 ft | 370 kts | 287° |
| 2026-04-30 19:43 | 35.21531 | 135.77736 | 23657 ft | 373 kts | 286° |
| 2026-04-30 19:43 | 35.22701 | 135.74950 | 24073 ft | 375 kts | 286° |
| 2026-04-30 19:43 | 35.23909 | 135.72081 | 24489 ft | 377 kts | 286° |
| 2026-04-30 19:44 | 35.26304 | 135.66373 | 25279 ft | 382 kts | 286° |
| 2026-04-30 19:44 | 35.27530 | 135.63463 | 25691 ft | 383 kts | 285° |
| 2026-04-30 19:44 | 35.28739 | 135.60571 | 26068 ft | 385 kts | 285° |
| 2026-04-30 19:44 | 35.29962 | 135.57675 | 26478 ft | 386 kts | 285° |
| 2026-04-30 19:45 | 35.31183 | 135.54750 | 26871 ft | 386 kts | 285° |
| 2026-04-30 19:45 | 35.32401 | 135.51848 | 27216 ft | 388 kts | 285° |
| 2026-04-30 19:45 | 35.33633 | 135.48894 | 27538 ft | 389 kts | 285° |
| 2026-04-30 19:45 | 35.34869 | 135.45935 | 27824 ft | 392 kts | 285° |
| 2026-04-30 19:46 | 35.36092 | 135.43002 | 28127 ft | 394 kts | 285° |
| 2026-04-30 19:46 | 35.37344 | 135.39998 | 28436 ft | 395 kts | 285° |
| 2026-04-30 19:46 | 35.38598 | 135.37001 | 28696 ft | 398 kts | 285° |
| 2026-04-30 19:46 | 35.39862 | 135.33954 | 28971 ft | 399 kts | 284° |
| 2026-04-30 19:47 | 35.41131 | 135.30907 | 29249 ft | 402 kts | 284° |
| 2026-04-30 19:47 | 35.41975 | 135.28911 | 29420 ft | 403 kts | 284° |
| 2026-04-30 19:47 | 35.43696 | 135.24811 | 29786 ft | 404 kts | 283° |
| 2026-04-30 19:47 | 35.44962 | 135.21756 | 30050 ft | 405 kts | 283° |
| 2026-04-30 19:48 | 35.46214 | 135.18665 | 30308 ft | 405 kts | 283° |
| 2026-04-30 19:48 | 35.47430 | 135.15561 | 30520 ft | 405 kts | 282° |
| 2026-04-30 19:48 | 35.48531 | 135.12437 | 30737 ft | 397 kts | 275° |
| 2026-04-30 19:48 | 35.49078 | 135.09193 | 30871 ft | 377 kts | 261° |
| 2026-04-30 19:49 | 35.49025 | 135.06058 | 31090 ft | 369 kts | 256° |
| 2026-04-30 19:49 | 35.48962 | 134.99713 | 31543 ft | 377 kts | 259° |
| 2026-04-30 19:49 | 35.49000 | 134.96480 | 31678 ft | 384 kts | 260° |
| 2026-04-30 19:50 | 35.49132 | 134.89827 | 31779 ft | 400 kts | 261° |
| 2026-04-30 19:50 | 35.49279 | 134.82924 | 31782 ft | 416 kts | 262° |
| 2026-04-30 19:51 | 35.49461 | 134.75720 | 31765 ft | 429 kts | 261° |
| 2026-04-30 19:51 | 35.49658 | 134.68352 | 31749 ft | 437 kts | 262° |
| 2026-04-30 19:52 | 35.49865 | 134.60896 | 31710 ft | 440 kts | 262° |
| 2026-04-30 19:52 | 35.50054 | 134.53484 | 31697 ft | 436 kts | 262° |
| 2026-04-30 19:53 | 35.50258 | 134.46091 | 31715 ft | 434 kts | 262° |
| 2026-04-30 19:53 | 35.50464 | 134.38687 | 31705 ft | 436 kts | 262° |
| 2026-04-30 19:54 | 35.50671 | 134.31276 | 31734 ft | 439 kts | 262° |
| 2026-04-30 19:54 | 35.50874 | 134.23813 | 31708 ft | 437 kts | 261° |
| 2026-04-30 19:55 | 35.50903 | 134.16431 | 31685 ft | 430 kts | 258° |
| 2026-04-30 19:55 | 35.51049 | 134.09042 | 31697 ft | 438 kts | 263° |
| 2026-04-30 19:56 | 35.51300 | 134.01605 | 31701 ft | 436 kts | 261° |
| 2026-04-30 19:56 | 35.51505 | 133.94211 | 31686 ft | 438 kts | 261° |
| 2026-04-30 19:57 | 35.51675 | 133.86742 | 31682 ft | 438 kts | 261° |
| 2026-04-30 19:57 | 35.51864 | 133.79283 | 31686 ft | 437 kts | 261° |
| 2026-04-30 19:58 | 35.52032 | 133.71846 | 31701 ft | 438 kts | 261° |
| 2026-04-30 19:58 | 35.52022 | 133.64435 | 31693 ft | 436 kts | 258° |
| 2026-04-30 19:59 | 35.52180 | 133.56961 | 31711 ft | 441 kts | 262° |
| 2026-04-30 20:00 | 35.52557 | 133.45721 | 31691 ft | 439 kts | 262° |
| 2026-04-30 20:00 | 35.52676 | 133.38237 | 31696 ft | 440 kts | 259° |
| 2026-04-30 20:01 | 35.52859 | 133.26929 | 31709 ft | 442 kts | 262° |
| 2026-04-30 20:01 | 35.53085 | 133.19461 | 31700 ft | 441 kts | 261° |
| 2026-04-30 20:02 | 35.53220 | 133.08159 | 31675 ft | 447 kts | 263° |
| 2026-04-30 20:03 | 35.54785 | 132.96716 | 31719 ft | 455 kts | 268° |
| 2026-04-30 20:03 | 35.55791 | 132.89069 | 31710 ft | 454 kts | 268° |
| 2026-04-30 20:04 | 35.56776 | 132.81450 | 31711 ft | 454 kts | 268° |
| 2026-04-30 20:05 | 35.58098 | 132.69928 | 31716 ft | 455 kts | 266° |
| 2026-04-30 20:05 | 35.59613 | 132.58400 | 31730 ft | 459 kts | 269° |
| 2026-04-30 20:06 | 35.60649 | 132.50731 | 31709 ft | 457 kts | 270° |
| 2026-04-30 20:06 | 35.61654 | 132.43015 | 31721 ft | 459 kts | 270° |
| 2026-04-30 20:07 | 35.62649 | 132.35307 | 31715 ft | 459 kts | 270° |
| 2026-04-30 20:08 | 35.64131 | 132.23708 | 31712 ft | 461 kts | 269° |
| 2026-04-30 20:08 | 35.65130 | 132.15929 | 31716 ft | 460 kts | 269° |
| 2026-04-30 20:09 | 35.66094 | 132.08182 | 31740 ft | 462 kts | 270° |
| 2026-04-30 20:09 | 35.67580 | 131.96486 | 31705 ft | 464 kts | 270° |
| 2026-04-30 20:10 | 35.69025 | 131.84779 | 31699 ft | 462 kts | 270° |
| 2026-04-30 20:11 | 35.70478 | 131.73062 | 31722 ft | 467 kts | 270° |
| 2026-04-30 20:11 | 35.71439 | 131.65186 | 31738 ft | 467 kts | 270° |
| 2026-04-30 20:12 | 35.72883 | 131.53320 | 31740 ft | 469 kts | 271° |
| 2026-04-30 20:13 | 35.73844 | 131.45392 | 31730 ft | 470 kts | 271° |
| 2026-04-30 20:13 | 35.74788 | 131.37495 | 31748 ft | 472 kts | 271° |
| 2026-04-30 20:14 | 35.75743 | 131.29504 | 31750 ft | 472 kts | 270° |
| 2026-04-30 20:14 | 35.76698 | 131.21558 | 31739 ft | 472 kts | 271° |
| 2026-04-30 20:15 | 35.77636 | 131.13545 | 31767 ft | 474 kts | 271° |
| 2026-04-30 20:15 | 35.78572 | 131.05537 | 31747 ft | 474 kts | 271° |
| 2026-04-30 20:16 | 35.79512 | 130.97501 | 31752 ft | 477 kts | 272° |
| 2026-04-30 20:16 | 35.80448 | 130.89453 | 31761 ft | 477 kts | 272° |
| 2026-04-30 20:17 | 35.81388 | 130.81409 | 31743 ft | 478 kts | 272° |
| 2026-04-30 20:17 | 35.82291 | 130.73367 | 31758 ft | 475 kts | 271° |
| 2026-04-30 20:18 | 35.83299 | 130.65328 | 31767 ft | 479 kts | 273° |
| 2026-04-30 20:18 | 35.84346 | 130.57193 | 31773 ft | 483 kts | 273° |
| 2026-04-30 20:19 | 35.85376 | 130.49017 | 31771 ft | 481 kts | 273° |
| 2026-04-30 20:19 | 35.86402 | 130.40916 | 31775 ft | 481 kts | 273° |
| 2026-04-30 20:20 | 35.87413 | 130.32739 | 31789 ft | 485 kts | 273° |
| 2026-04-30 20:20 | 35.88430 | 130.24558 | 31799 ft | 486 kts | 273° |
| 2026-04-30 20:21 | 35.89446 | 130.16347 | 31784 ft | 484 kts | 273° |
| 2026-04-30 20:21 | 35.90440 | 130.08186 | 31792 ft | 483 kts | 274° |
| 2026-04-30 20:22 | 35.91439 | 130.00040 | 31792 ft | 486 kts | 274° |
| 2026-04-30 20:22 | 35.92444 | 129.91791 | 31801 ft | 487 kts | 274° |
| 2026-04-30 20:23 | 35.93434 | 129.83546 | 31808 ft | 487 kts | 274° |
| 2026-04-30 20:23 | 35.94430 | 129.75296 | 31888 ft | 488 kts | 274° |
| 2026-04-30 20:24 | 35.95414 | 129.67027 | 31872 ft | 488 kts | 274° |
| 2026-04-30 20:24 | 35.96384 | 129.58791 | 31809 ft | 489 kts | 275° |
| 2026-04-30 20:25 | 35.98443 | 129.46469 | 31760 ft | 498 kts | 291° |
| 2026-04-30 20:25 | 36.00168 | 129.42726 | 31754 ft | 505 kts | 303° |
| 2026-04-30 20:26 | 36.04377 | 129.35851 | 31802 ft | 505 kts | 302° |
| 2026-04-30 20:26 | 36.10506 | 129.25275 | 31826 ft | 503 kts | 302° |
| 2026-04-30 20:27 | 36.18567 | 129.11279 | 31832 ft | 502 kts | 302° |
| 2026-04-30 20:28 | 36.26649 | 128.97163 | 31833 ft | 503 kts | 302° |
| 2026-04-30 20:30 | 36.36679 | 128.79553 | 31845 ft | 502 kts | 303° |
| 2026-04-30 20:31 | 36.48700 | 128.58334 | 31850 ft | 503 kts | 303° |
| 2026-04-30 20:32 | 36.58714 | 128.40549 | 31857 ft | 503 kts | 303° |
| 2026-04-30 20:33 | 36.64709 | 128.29887 | 31870 ft | 504 kts | 304° |
| 2026-04-30 20:34 | 36.70802 | 128.19214 | 31863 ft | 504 kts | 304° |
| 2026-04-30 20:35 | 36.76848 | 128.08575 | 31864 ft | 503 kts | 304° |
| 2026-04-30 20:35 | 36.82893 | 127.97894 | 31865 ft | 503 kts | 304° |
| 2026-04-30 20:36 | 36.86917 | 127.90759 | 31859 ft | 502 kts | 304° |
| 2026-04-30 20:37 | 36.92921 | 127.80081 | 31862 ft | 504 kts | 305° |
| 2026-04-30 20:37 | 36.96954 | 127.72926 | 31861 ft | 503 kts | 305° |
| 2026-04-30 20:38 | 37.00928 | 127.65851 | 31853 ft | 500 kts | 305° |
| 2026-04-30 20:38 | 37.04901 | 127.58752 | 31859 ft | 500 kts | 305° |
| 2026-04-30 20:39 | 37.10882 | 127.48036 | 31858 ft | 500 kts | 305° |
| 2026-04-30 20:40 | 37.16824 | 127.37341 | 31862 ft | 499 kts | 305° |
| 2026-04-30 20:40 | 37.20773 | 127.30226 | 31876 ft | 499 kts | 305° |
| 2026-04-30 20:41 | 37.26686 | 127.19555 | 31877 ft | 498 kts | 304° |
| 2026-04-30 20:41 | 37.30610 | 127.12427 | 31888 ft | 499 kts | 304° |
| 2026-04-30 20:42 | 37.34538 | 127.05299 | 31885 ft | 498 kts | 305° |
| 2026-04-30 20:43 | 37.40250 | 126.94470 | 31889 ft | 497 kts | 295° |
| 2026-04-30 20:43 | 37.41435 | 126.90397 | 31873 ft | 499 kts | 283° |
| 2026-04-30 20:43 | 37.41924 | 126.86066 | 31889 ft | 499 kts | 271° |
| 2026-04-30 20:44 | 37.41413 | 126.73028 | 31891 ft | 502 kts | 269° |
| 2026-04-30 20:45 | 37.41202 | 126.55658 | 31868 ft | 493 kts | 270° |
| 2026-04-30 20:45 | 37.41140 | 126.47056 | 31889 ft | 495 kts | 271° |
| 2026-04-30 20:46 | 37.41011 | 126.29820 | 31891 ft | 493 kts | 271° |
| 2026-04-30 20:47 | 37.40906 | 126.16950 | 31890 ft | 493 kts | 271° |
| 2026-04-30 20:48 | 37.40783 | 126.04127 | 31902 ft | 489 kts | 272° |
| 2026-04-30 20:48 | 37.40693 | 125.95588 | 31900 ft | 489 kts | 272° |
| 2026-04-30 20:49 | 37.40602 | 125.87068 | 31901 ft | 490 kts | 272° |
| 2026-04-30 20:50 | 37.40439 | 125.74252 | 31898 ft | 489 kts | 272° |
| 2026-04-30 20:50 | 37.40337 | 125.65740 | 31882 ft | 488 kts | 273° |
| 2026-04-30 20:51 | 37.40213 | 125.57283 | 31871 ft | 487 kts | 274° |
| 2026-04-30 20:51 | 37.40030 | 125.44566 | 31871 ft | 486 kts | 274° |
| 2026-04-30 20:52 | 37.39887 | 125.36092 | 31877 ft | 486 kts | 274° |
| 2026-04-30 20:53 | 37.39690 | 125.23396 | 31876 ft | 485 kts | 274° |
| 2026-04-30 20:53 | 37.39536 | 125.15016 | 31874 ft | 482 kts | 274° |
| 2026-04-30 20:54 | 37.39310 | 125.02409 | 31889 ft | 481 kts | 274° |
| 2026-04-30 20:55 | 37.39070 | 124.89860 | 31887 ft | 479 kts | 275° |
| 2026-04-30 20:55 | 37.38003 | 124.81558 | 31866 ft | 498 kts | 255° |
| 2026-04-30 20:56 | 37.34489 | 124.74005 | 31914 ft | 505 kts | 242° |
| 2026-04-30 20:56 | 37.32545 | 124.70342 | 31898 ft | 505 kts | 243° |
| 2026-04-30 20:57 | 37.26913 | 124.59249 | 31893 ft | 503 kts | 245° |
| 2026-04-30 20:57 | 37.23203 | 124.51811 | 31900 ft | 504 kts | 245° |
| 2026-04-30 20:58 | 37.18248 | 124.40386 | 31873 ft | 486 kts | 263° |
| 2026-04-30 20:58 | 37.17672 | 124.36268 | 31896 ft | 471 kts | 275° |
| 2026-04-30 20:58 | 37.17620 | 124.32188 | 31928 ft | 471 kts | 276° |
| 2026-04-30 20:59 | 37.17278 | 124.19866 | 31940 ft | 474 kts | 275° |
| 2026-04-30 21:00 | 37.16707 | 124.03477 | 31899 ft | 473 kts | 272° |
| 2026-04-30 21:01 | 37.14738 | 123.95499 | 31904 ft | 500 kts | 248° |
| 2026-04-30 21:01 | 37.12773 | 123.91827 | 31920 ft | 504 kts | 241° |
| 2026-04-30 21:02 | 37.06954 | 123.81030 | 31929 ft | 500 kts | 244° |
| 2026-04-30 21:02 | 37.03157 | 123.73753 | 31910 ft | 498 kts | 245° |
| 2026-04-30 21:03 | 36.99416 | 123.66554 | 31928 ft | 495 kts | 245° |
| 2026-04-30 21:03 | 36.95658 | 123.59351 | 31916 ft | 495 kts | 245° |
| 2026-04-30 21:04 | 36.91927 | 123.52201 | 31924 ft | 493 kts | 245° |
| 2026-04-30 21:04 | 36.86341 | 123.41466 | 31894 ft | 489 kts | 249° |
| 2026-04-30 21:05 | 36.84936 | 123.37687 | 31884 ft | 475 kts | 261° |
| 2026-04-30 21:05 | 36.84237 | 123.33750 | 31913 ft | 460 kts | 272° |
| 2026-04-30 21:05 | 36.84249 | 123.29844 | 31921 ft | 448 kts | 285° |
| 2026-04-30 21:05 | 36.84959 | 123.26102 | 31949 ft | 438 kts | 295° |
| 2026-04-30 21:06 | 36.86945 | 123.18903 | 31947 ft | 441 kts | 294° |
| 2026-04-30 21:06 | 36.88775 | 123.11628 | 31936 ft | 442 kts | 293° |
| 2026-04-30 21:07 | 36.90544 | 123.04351 | 31927 ft | 440 kts | 293° |
| 2026-04-30 21:07 | 36.92308 | 122.97015 | 31918 ft | 440 kts | 293° |
| 2026-04-30 21:08 | 36.94054 | 122.89730 | 31913 ft | 440 kts | 292° |
| 2026-04-30 21:08 | 36.95802 | 122.82410 | 31910 ft | 441 kts | 292° |
| 2026-04-30 21:09 | 36.97541 | 122.75105 | 31910 ft | 440 kts | 292° |
| 2026-04-30 21:09 | 36.99280 | 122.67793 | 31925 ft | 439 kts | 292° |
| 2026-04-30 21:10 | 37.01004 | 122.60488 | 31914 ft | 438 kts | 292° |
| 2026-04-30 21:10 | 37.02725 | 122.53170 | 31930 ft | 439 kts | 292° |
| 2026-04-30 21:11 | 37.04415 | 122.45900 | 31929 ft | 438 kts | 292° |
| 2026-04-30 21:11 | 37.06128 | 122.38602 | 31928 ft | 437 kts | 292° |
| 2026-04-30 21:12 | 37.08769 | 122.31938 | 31906 ft | 425 kts | 313° |
| 2026-04-30 21:12 | 37.10914 | 122.29411 | 31923 ft | 424 kts | 324° |
| 2026-04-30 21:12 | 37.13309 | 122.27277 | 31969 ft | 423 kts | 325° |
| 2026-04-30 21:13 | 37.17840 | 122.22633 | 31911 ft | 426 kts | 313° |
| 2026-04-30 21:13 | 37.19521 | 122.19536 | 31908 ft | 432 kts | 300° |
| 2026-04-30 21:13 | 37.20570 | 122.16017 | 31914 ft | 438 kts | 289° |
| 2026-04-30 21:14 | 37.22147 | 122.08651 | 31934 ft | 438 kts | 291° |
| 2026-04-30 21:14 | 37.23928 | 122.01384 | 31926 ft | 434 kts | 292° |
| 2026-04-30 21:15 | 37.25736 | 121.94205 | 31912 ft | 434 kts | 292° |
| 2026-04-30 21:15 | 37.27569 | 121.86996 | 31913 ft | 434 kts | 292° |
| 2026-04-30 21:16 | 37.29411 | 121.79785 | 31912 ft | 433 kts | 292° |
| 2026-04-30 21:16 | 37.31238 | 121.72623 | 31927 ft | 434 kts | 292° |
| 2026-04-30 21:17 | 37.33076 | 121.65473 | 31917 ft | 431 kts | 293° |
| 2026-04-30 21:17 | 37.34894 | 121.58279 | 31935 ft | 432 kts | 292° |
| 2026-04-30 21:18 | 37.36722 | 121.51100 | 31915 ft | 433 kts | 292° |
| 2026-04-30 21:18 | 37.38553 | 121.43882 | 31911 ft | 431 kts | 292° |
| 2026-04-30 21:19 | 37.40351 | 121.36770 | 31918 ft | 430 kts | 292° |
| 2026-04-30 21:19 | 37.42147 | 121.29572 | 31925 ft | 431 kts | 291° |
| 2026-04-30 21:20 | 37.43957 | 121.22405 | 31926 ft | 432 kts | 291° |
| 2026-04-30 21:20 | 37.45928 | 121.15314 | 31922 ft | 430 kts | 295° |
| 2026-04-30 21:21 | 37.48150 | 121.08360 | 31923 ft | 430 kts | 295° |
| 2026-04-30 21:22 | 37.51456 | 120.97935 | 31925 ft | 429 kts | 295° |
| 2026-04-30 21:23 | 37.55832 | 120.84088 | 31919 ft | 425 kts | 295° |
| 2026-04-30 21:23 | 37.59147 | 120.73766 | 31911 ft | 424 kts | 296° |
| 2026-04-30 21:24 | 37.61379 | 120.66882 | 31909 ft | 425 kts | 296° |
| 2026-04-30 21:24 | 37.63635 | 120.60019 | 31920 ft | 424 kts | 296° |
| 2026-04-30 21:25 | 37.67459 | 120.50095 | 31915 ft | 420 kts | 303° |
| 2026-04-30 21:26 | 37.71847 | 120.40522 | 31910 ft | 421 kts | 302° |
| 2026-04-30 21:27 | 37.76201 | 120.30931 | 31913 ft | 420 kts | 301° |
| 2026-04-30 21:27 | 37.79107 | 120.24519 | 31914 ft | 421 kts | 302° |
| 2026-04-30 21:28 | 37.83454 | 120.14970 | 31901 ft | 420 kts | 302° |
| 2026-04-30 21:29 | 37.87783 | 120.05353 | 31902 ft | 419 kts | 302° |
| 2026-04-30 21:30 | 37.94958 | 119.89374 | 31908 ft | 419 kts | 302° |
| 2026-04-30 21:31 | 38.02107 | 119.73395 | 31896 ft | 418 kts | 302° |
| 2026-04-30 21:32 | 38.06363 | 119.63814 | 31904 ft | 416 kts | 302° |
| 2026-04-30 21:32 | 38.09213 | 119.57435 | 31895 ft | 414 kts | 302° |
| 2026-04-30 21:33 | 38.12948 | 119.47566 | 31918 ft | 418 kts | 296° |
| 2026-04-30 21:34 | 38.15149 | 119.40771 | 31904 ft | 416 kts | 296° |
| 2026-04-30 21:34 | 38.18409 | 119.30663 | 31911 ft | 415 kts | 296° |
| 2026-04-30 21:35 | 38.20606 | 119.23837 | 31905 ft | 416 kts | 296° |
| 2026-04-30 21:35 | 38.22795 | 119.17104 | 31890 ft | 412 kts | 295° |
| 2026-04-30 21:36 | 38.24945 | 119.10419 | 31892 ft | 413 kts | 295° |
| 2026-04-30 21:37 | 38.29277 | 118.96950 | 31906 ft | 411 kts | 295° |
| 2026-04-30 21:37 | 38.31419 | 118.90176 | 31897 ft | 411 kts | 295° |
| 2026-04-30 21:38 | 38.33565 | 118.83466 | 31895 ft | 411 kts | 295° |
| 2026-04-30 21:38 | 38.35754 | 118.76791 | 31895 ft | 410 kts | 296° |
| 2026-04-30 21:39 | 38.37888 | 118.70104 | 31891 ft | 411 kts | 295° |
| 2026-04-30 21:39 | 38.40019 | 118.63366 | 31912 ft | 411 kts | 295° |
| 2026-04-30 21:40 | 38.42152 | 118.56648 | 31896 ft | 409 kts | 295° |
| 2026-04-30 21:40 | 38.44273 | 118.49920 | 31902 ft | 409 kts | 295° |
| 2026-04-30 21:41 | 38.46427 | 118.43202 | 31895 ft | 409 kts | 296° |
| 2026-04-30 21:41 | 38.48591 | 118.36510 | 31899 ft | 408 kts | 295° |
| 2026-04-30 21:42 | 38.50673 | 118.29800 | 31900 ft | 408 kts | 295° |
| 2026-04-30 21:42 | 38.52759 | 118.23099 | 31901 ft | 407 kts | 294° |
| 2026-04-30 21:43 | 38.54827 | 118.16405 | 31894 ft | 406 kts | 295° |
| 2026-04-30 21:43 | 38.56927 | 118.09753 | 31887 ft | 405 kts | 295° |
| 2026-04-30 21:44 | 38.59178 | 118.03202 | 31862 ft | 403 kts | 303° |
| 2026-04-30 21:44 | 38.60924 | 118.00412 | 31874 ft | 402 kts | 314° |
| 2026-04-30 21:44 | 38.62890 | 117.97929 | 31901 ft | 402 kts | 314° |
| 2026-04-30 21:45 | 38.66786 | 117.92763 | 31885 ft | 403 kts | 313° |
| 2026-04-30 21:45 | 38.70661 | 117.87612 | 31891 ft | 403 kts | 313° |
| 2026-04-30 21:46 | 38.74530 | 117.82432 | 31879 ft | 402 kts | 313° |
| 2026-04-30 21:46 | 38.78376 | 117.77312 | 31882 ft | 402 kts | 312° |
| 2026-04-30 21:47 | 38.82240 | 117.72115 | 31884 ft | 402 kts | 312° |
| 2026-04-30 21:47 | 38.86083 | 117.66933 | 31878 ft | 402 kts | 313° |
| 2026-04-30 21:48 | 38.89942 | 117.61751 | 31877 ft | 401 kts | 313° |
| 2026-04-30 21:48 | 38.93780 | 117.56559 | 31888 ft | 402 kts | 313° |
| 2026-04-30 21:49 | 38.97626 | 117.51352 | 31884 ft | 402 kts | 312° |
| 2026-04-30 21:49 | 39.01469 | 117.46190 | 31878 ft | 402 kts | 311° |
| 2026-04-30 21:50 | 39.05280 | 117.40989 | 31881 ft | 401 kts | 311° |
| 2026-04-30 21:50 | 39.08215 | 117.34936 | 31859 ft | 404 kts | 290° |
| 2026-04-30 21:51 | 39.09136 | 117.27760 | 31914 ft | 409 kts | 284° |
| 2026-04-30 21:51 | 39.10049 | 117.20561 | 31891 ft | 407 kts | 283° |
| 2026-04-30 21:52 | 39.10965 | 117.13384 | 31896 ft | 409 kts | 284° |
| 2026-04-30 21:52 | 39.11921 | 117.06201 | 31877 ft | 407 kts | 284° |
| 2026-04-30 21:53 | 39.12946 | 116.99076 | 31878 ft | 405 kts | 286° |
| 2026-04-30 21:53 | 39.14020 | 116.92006 | 31883 ft | 406 kts | 285° |
| 2026-04-30 21:54 | 39.15125 | 116.84904 | 31878 ft | 406 kts | 285° |
| 2026-04-30 21:54 | 39.16215 | 116.77774 | 31880 ft | 407 kts | 285° |
| 2026-04-30 21:55 | 39.17299 | 116.70629 | 31874 ft | 407 kts | 285° |
| 2026-04-30 21:55 | 39.18411 | 116.63531 | 31867 ft | 407 kts | 285° |
| 2026-04-30 21:56 | 39.19154 | 116.56304 | 31837 ft | 416 kts | 272° |
| 2026-04-30 21:56 | 39.18619 | 116.52623 | 31851 ft | 431 kts | 261° |
| 2026-04-30 21:56 | 39.17626 | 116.48953 | 31889 ft | 430 kts | 259° |
| 2026-04-30 21:57 | 39.15836 | 116.41676 | 31865 ft | 425 kts | 262° |
| 2026-04-30 21:57 | 39.14131 | 116.34470 | 31858 ft | 425 kts | 261° |
| 2026-04-30 21:58 | 39.12426 | 116.27190 | 31869 ft | 425 kts | 261° |
| 2026-04-30 21:58 | 39.10728 | 116.19924 | 31852 ft | 425 kts | 261° |
| 2026-04-30 21:59 | 39.09019 | 116.12656 | 31851 ft | 426 kts | 261° |
| 2026-04-30 22:00 | 39.06467 | 116.01749 | 31842 ft | 425 kts | 261° |
| 2026-04-30 22:00 | 39.03907 | 115.90902 | 31846 ft | 424 kts | 261° |
| 2026-04-30 22:01 | 39.02206 | 115.83694 | 31842 ft | 425 kts | 261° |
| 2026-04-30 22:01 | 39.00493 | 115.76444 | 31841 ft | 426 kts | 261° |
| 2026-04-30 22:02 | 38.98768 | 115.69175 | 31828 ft | 424 kts | 261° |
| 2026-04-30 22:02 | 38.96995 | 115.61932 | 31851 ft | 426 kts | 261° |
| 2026-04-30 22:03 | 38.95315 | 115.54692 | 31850 ft | 423 kts | 262° |
| 2026-04-30 22:03 | 38.93485 | 115.47493 | 31825 ft | 434 kts | 253° |
| 2026-04-30 22:04 | 38.90896 | 115.40562 | 31861 ft | 432 kts | 254° |
| 2026-04-30 22:05 | 38.87177 | 115.30136 | 31870 ft | 429 kts | 253° |
| 2026-04-30 22:05 | 38.84712 | 115.23177 | 31871 ft | 430 kts | 254° |
| 2026-04-30 22:06 | 38.82242 | 115.16179 | 31860 ft | 431 kts | 253° |
| 2026-04-30 22:06 | 38.78514 | 115.05754 | 31855 ft | 432 kts | 254° |
| 2026-04-30 22:07 | 38.76132 | 114.98692 | 31859 ft | 429 kts | 256° |
| 2026-04-30 22:07 | 38.73660 | 114.91740 | 31861 ft | 432 kts | 253° |
| 2026-04-30 22:08 | 38.71167 | 114.84841 | 31870 ft | 428 kts | 253° |
| 2026-04-30 22:08 | 38.68676 | 114.77928 | 31862 ft | 429 kts | 252° |
| 2026-04-30 22:09 | 38.66154 | 114.71024 | 31873 ft | 430 kts | 253° |
| 2026-04-30 22:09 | 38.63708 | 114.64060 | 31876 ft | 428 kts | 254° |
| 2026-04-30 22:10 | 38.61354 | 114.57107 | 31874 ft | 430 kts | 252° |
| 2026-04-30 22:10 | 38.58794 | 114.50183 | 31877 ft | 431 kts | 253° |
| 2026-04-30 22:11 | 38.54961 | 114.39840 | 31881 ft | 431 kts | 252° |
| 2026-04-30 22:12 | 38.52441 | 114.32913 | 31897 ft | 430 kts | 252° |
| 2026-04-30 22:12 | 38.49911 | 114.25987 | 31895 ft | 432 kts | 252° |
| 2026-04-30 22:13 | 38.47363 | 114.19060 | 31883 ft | 433 kts | 252° |
| 2026-04-30 22:13 | 38.44827 | 114.12160 | 31884 ft | 431 kts | 252° |
| 2026-04-30 22:14 | 38.42380 | 114.05228 | 31897 ft | 430 kts | 253° |
| 2026-04-30 22:14 | 38.39859 | 113.98274 | 31891 ft | 432 kts | 251° |
| 2026-04-30 22:15 | 38.37270 | 113.91390 | 31899 ft | 432 kts | 251° |
| 2026-04-30 22:15 | 38.34764 | 113.84518 | 31910 ft | 431 kts | 253° |
| 2026-04-30 22:16 | 38.32216 | 113.77602 | 31920 ft | 433 kts | 250° |
| 2026-04-30 22:17 | 38.26986 | 113.63913 | 31960 ft | 430 kts | 251° |
| 2026-04-30 22:17 | 38.23087 | 113.53664 | 31986 ft | 431 kts | 251° |
| 2026-04-30 22:18 | 38.19159 | 113.43391 | 32007 ft | 431 kts | 251° |
| 2026-04-30 22:19 | 38.15390 | 113.33066 | 32042 ft | 430 kts | 250° |
| 2026-04-30 22:20 | 38.11482 | 113.22835 | 32065 ft | 432 kts | 251° |
| 2026-04-30 22:20 | 38.07629 | 113.12525 | 32046 ft | 431 kts | 251° |
| 2026-04-30 22:21 | 38.05069 | 113.05696 | 32055 ft | 430 kts | 250° |
| 2026-04-30 22:21 | 38.02493 | 112.98869 | 32048 ft | 429 kts | 250° |
| 2026-04-30 22:22 | 37.99907 | 112.92032 | 32049 ft | 434 kts | 250° |
| 2026-04-30 22:22 | 37.97325 | 112.85161 | 32056 ft | 434 kts | 250° |
| 2026-04-30 22:23 | 37.94734 | 112.78310 | 32060 ft | 432 kts | 250° |
| 2026-04-30 22:23 | 37.92105 | 112.71471 | 32025 ft | 431 kts | 250° |
| 2026-04-30 22:24 | 37.89537 | 112.64657 | 32014 ft | 432 kts | 250° |
| 2026-04-30 22:24 | 37.87009 | 112.57783 | 31993 ft | 431 kts | 249° |
| 2026-04-30 22:25 | 37.84096 | 112.51104 | 31985 ft | 435 kts | 248° |
| 2026-04-30 22:25 | 37.81222 | 112.44392 | 31971 ft | 435 kts | 247° |
| 2026-04-30 22:26 | 37.77788 | 112.34029 | 31982 ft | 423 kts | 266° |
| 2026-04-30 22:26 | 37.77794 | 112.30318 | 32018 ft | 421 kts | 278° |
| 2026-04-30 22:27 | 37.78205 | 112.26724 | 32073 ft | 421 kts | 279° |
| 2026-04-30 22:27 | 37.79299 | 112.15698 | 32081 ft | 423 kts | 277° |
| 2026-04-30 22:28 | 37.80352 | 112.04692 | 32077 ft | 421 kts | 277° |
| 2026-04-30 22:29 | 37.81757 | 111.89973 | 32088 ft | 424 kts | 277° |
| 2026-04-30 22:31 | 37.84277 | 111.64252 | 32075 ft | 422 kts | 278° |
| 2026-04-30 22:32 | 37.86213 | 111.45866 | 32077 ft | 425 kts | 276° |
| 2026-04-30 22:33 | 37.87807 | 111.27357 | 32071 ft | 424 kts | 276° |
| 2026-04-30 22:35 | 37.89407 | 111.08831 | 32045 ft | 426 kts | 277° |
| 2026-04-30 22:36 | 37.90978 | 110.90220 | 32008 ft | 427 kts | 276° |
| 2026-04-30 22:37 | 37.92207 | 110.75394 | 31999 ft | 425 kts | 276° |
| 2026-04-30 22:38 | 37.93565 | 110.60469 | 31994 ft | 427 kts | 277° |
| 2026-04-30 22:39 | 37.94686 | 110.49335 | 31992 ft | 427 kts | 277° |
| 2026-04-30 22:40 | 37.96909 | 110.27018 | 31998 ft | 426 kts | 277° |
| 2026-04-30 22:41 | 37.98733 | 110.08446 | 31992 ft | 428 kts | 277° |
| 2026-04-30 22:43 | 38.00885 | 109.86052 | 31974 ft | 428 kts | 276° |
| 2026-04-30 22:44 | 38.02305 | 109.71121 | 31975 ft | 428 kts | 277° |
| 2026-04-30 22:45 | 38.04384 | 109.48728 | 31979 ft | 428 kts | 276° |
| 2026-04-30 22:47 | 38.06430 | 109.26269 | 32010 ft | 429 kts | 276° |
| 2026-04-30 22:48 | 38.07753 | 109.11333 | 31988 ft | 430 kts | 276° |
| 2026-04-30 22:49 | 38.09740 | 108.88766 | 31970 ft | 429 kts | 276° |
| 2026-04-30 22:51 | 38.11671 | 108.66288 | 31987 ft | 428 kts | 276° |
| 2026-04-30 22:52 | 38.12622 | 108.55020 | 31990 ft | 430 kts | 275° |
| 2026-04-30 22:53 | 38.13871 | 108.40027 | 31995 ft | 427 kts | 275° |
| 2026-04-30 22:53 | 38.14759 | 108.28803 | 32021 ft | 427 kts | 276° |
| 2026-04-30 22:55 | 38.16669 | 108.10075 | 32012 ft | 430 kts | 276° |
| 2026-04-30 22:56 | 38.18135 | 107.95088 | 31994 ft | 427 kts | 276° |
| 2026-04-30 22:57 | 38.19909 | 107.76389 | 32009 ft | 429 kts | 275° |
| 2026-04-30 22:58 | 38.21613 | 107.61434 | 31992 ft | 429 kts | 277° |
| 2026-04-30 22:59 | 38.24156 | 107.38949 | 31979 ft | 431 kts | 277° |